Schedule Details


Flight Number: CTN301
Departure: Eleftherios Venizelos Intl (LGAV) at 19:50
Arrival: Cilipi (LDDU) at 20:20
Route: RIMAX UL613 XANIS L613 YNN UL611 VAKSU L611 LOKRU

Weather Information
LGAV 112250Z VRB02KT CAVOK 12/00 Q1013 NOSIG
LDDU 112300Z 08008KT 060V120 CAVOK 19/10 Q1010
Schedule Frequency

Route Map